sensor_id;sensor_type;location;lat;lon;timestamp;temperature;humidity
4874;DHT22;2451;49.970;9.068;2023-11-21T00:00:37;9.20;99.90
4874;DHT22;2451;49.970;9.068;2023-11-21T00:03:03;9.20;99.90
4874;DHT22;2451;49.970;9.068;2023-11-21T00:05:29;9.20;99.90
4874;DHT22;2451;49.970;9.068;2023-11-21T00:07:55;9.20;99.90
4874;DHT22;2451;49.970;9.068;2023-11-21T00:10:20;9.20;99.90
4874;DHT22;2451;49.970;9.068;2023-11-21T00:12:46;9.30;99.90
4874;DHT22;2451;49.970;9.068;2023-11-21T00:15:13;9.20;99.90
4874;DHT22;2451;49.970;9.068;2023-11-21T00:17:39;9.30;99.90
4874;DHT22;2451;49.970;9.068;2023-11-21T00:20:06;9.20;99.90
4874;DHT22;2451;49.970;9.068;2023-11-21T00:22:35;9.20;99.90
4874;DHT22;2451;49.970;9.068;2023-11-21T00:25:01;9.20;99.90
4874;DHT22;2451;49.970;9.068;2023-11-21T00:27:29;9.30;99.90
4874;DHT22;2451;49.970;9.068;2023-11-21T00:29:54;9.20;99.90
4874;DHT22;2451;49.970;9.068;2023-11-21T00:32:20;9.30;99.90
4874;DHT22;2451;49.970;9.068;2023-11-21T00:34:46;9.30;99.90
4874;DHT22;2451;49.970;9.068;2023-11-21T00:37:11;9.30;99.90
4874;DHT22;2451;49.970;9.068;2023-11-21T00:39:37;9.30;99.90
4874;DHT22;2451;49.970;9.068;2023-11-21T00:42:02;9.30;99.90
4874;DHT22;2451;49.970;9.068;2023-11-21T00:44:30;9.30;99.90
4874;DHT22;2451;49.970;9.068;2023-11-21T00:46:55;9.30;99.90
4874;DHT22;2451;49.970;9.068;2023-11-21T00:49:21;9.30;99.90
4874;DHT22;2451;49.970;9.068;2023-11-21T00:51:47;9.30;99.90
4874;DHT22;2451;49.970;9.068;2023-11-21T00:54:12;9.30;99.90
4874;DHT22;2451;49.970;9.068;2023-11-21T00:56:38;9.30;99.90
4874;DHT22;2451;49.970;9.068;2023-11-21T00:59:05;9.30;99.90
4874;DHT22;2451;49.970;9.068;2023-11-21T01:01:30;9.30;99.90
4874;DHT22;2451;49.970;9.068;2023-11-21T01:03:56;9.30;99.90
4874;DHT22;2451;49.970;9.068;2023-11-21T01:06:22;9.30;99.90
4874;DHT22;2451;49.970;9.068;2023-11-21T01:08:47;9.40;99.90
4874;DHT22;2451;49.970;9.068;2023-11-21T01:11:13;9.40;99.90
4874;DHT22;2451;49.970;9.068;2023-11-21T01:13:39;9.40;99.90
4874;DHT22;2451;49.970;9.068;2023-11-21T01:16:05;9.40;99.90
4874;DHT22;2451;49.970;9.068;2023-11-21T01:18:35;9.40;99.90
4874;DHT22;2451;49.970;9.068;2023-11-21T01:21:01;9.40;99.90
4874;DHT22;2451;49.970;9.068;2023-11-21T01:23:27;9.40;99.90
4874;DHT22;2451;49.970;9.068;2023-11-21T01:25:53;9.40;99.90
4874;DHT22;2451;49.970;9.068;2023-11-21T01:28:18;9.40;99.90
4874;DHT22;2451;49.970;9.068;2023-11-21T01:30:45;9.40;99.90
4874;DHT22;2451;49.970;9.068;2023-11-21T01:33:11;9.40;99.90
4874;DHT22;2451;49.970;9.068;2023-11-21T01:35:36;9.40;99.90
4874;DHT22;2451;49.970;9.068;2023-11-21T01:38:02;9.30;99.90
4874;DHT22;2451;49.970;9.068;2023-11-21T01:40:29;9.30;99.90
4874;DHT22;2451;49.970;9.068;2023-11-21T01:42:55;9.40;99.90
4874;DHT22;2451;49.970;9.068;2023-11-21T01:45:21;9.40;99.90
4874;DHT22;2451;49.970;9.068;2023-11-21T01:47:47;9.40;99.90
4874;DHT22;2451;49.970;9.068;2023-11-21T01:50:15;9.40;99.90
4874;DHT22;2451;49.970;9.068;2023-11-21T01:52:47;9.40;99.90
4874;DHT22;2451;49.970;9.068;2023-11-21T01:55:15;9.40;99.90
4874;DHT22;2451;49.970;9.068;2023-11-21T01:57:48;9.40;99.90
4874;DHT22;2451;49.970;9.068;2023-11-21T02:00:14;9.40;99.90
4874;DHT22;2451;49.970;9.068;2023-11-21T02:02:45;9.30;99.90
4874;DHT22;2451;49.970;9.068;2023-11-21T02:05:12;9.30;99.90
4874;DHT22;2451;49.970;9.068;2023-11-21T02:07:41;9.30;99.90
4874;DHT22;2451;49.970;9.068;2023-11-21T02:10:08;9.30;99.90
4874;DHT22;2451;49.970;9.068;2023-11-21T02:12:34;9.30;99.90
4874;DHT22;2451;49.970;9.068;2023-11-21T02:15:05;9.30;99.90
4874;DHT22;2451;49.970;9.068;2023-11-21T02:17:35;9.30;99.90
4874;DHT22;2451;49.970;9.068;2023-11-21T02:20:01;9.30;99.90
4874;DHT22;2451;49.970;9.068;2023-11-21T02:22:29;9.30;99.90
4874;DHT22;2451;49.970;9.068;2023-11-21T02:24:56;9.30;99.90
4874;DHT22;2451;49.970;9.068;2023-11-21T02:27:23;9.30;99.90
4874;DHT22;2451;49.970;9.068;2023-11-21T02:29:49;9.30;99.90
4874;DHT22;2451;49.970;9.068;2023-11-21T02:32:15;9.30;99.90
4874;DHT22;2451;49.970;9.068;2023-11-21T02:34:42;9.30;99.90
4874;DHT22;2451;49.970;9.068;2023-11-21T02:37:08;9.30;99.90
4874;DHT22;2451;49.970;9.068;2023-11-21T02:39:34;9.30;99.90
4874;DHT22;2451;49.970;9.068;2023-11-21T02:42:00;9.30;99.90
4874;DHT22;2451;49.970;9.068;2023-11-21T02:44:25;9.30;99.90
4874;DHT22;2451;49.970;9.068;2023-11-21T02:46:51;9.30;99.90
4874;DHT22;2451;49.970;9.068;2023-11-21T02:49:17;9.30;99.90
4874;DHT22;2451;49.970;9.068;2023-11-21T02:51:42;9.20;99.90
4874;DHT22;2451;49.970;9.068;2023-11-21T02:54:09;9.20;99.90
4874;DHT22;2451;49.970;9.068;2023-11-21T02:56:34;9.20;99.90
4874;DHT22;2451;49.970;9.068;2023-11-21T02:59:01;9.20;99.90
4874;DHT22;2451;49.970;9.068;2023-11-21T03:01:27;9.20;99.90
4874;DHT22;2451;49.970;9.068;2023-11-21T03:03:53;9.20;99.90
4874;DHT22;2451;49.970;9.068;2023-11-21T03:06:20;9.20;99.90
4874;DHT22;2451;49.970;9.068;2023-11-21T03:08:47;9.20;99.90
4874;DHT22;2451;49.970;9.068;2023-11-21T03:11:13;9.20;99.90
4874;DHT22;2451;49.970;9.068;2023-11-21T03:13:40;9.20;99.90
4874;DHT22;2451;49.970;9.068;2023-11-21T03:16:08;9.10;99.90
4874;DHT22;2451;49.970;9.068;2023-11-21T03:18:34;9.00;99.90
4874;DHT22;2451;49.970;9.068;2023-11-21T03:20:59;9.00;99.90
4874;DHT22;2451;49.970;9.068;2023-11-21T03:23:27;9.00;99.90
4874;DHT22;2451;49.970;9.068;2023-11-21T03:25:52;9.00;99.90
4874;DHT22;2451;49.970;9.068;2023-11-21T03:28:18;9.00;99.90
4874;DHT22;2451;49.970;9.068;2023-11-21T03:30:43;9.00;99.90
4874;DHT22;2451;49.970;9.068;2023-11-21T03:33:09;9.00;99.90
4874;DHT22;2451;49.970;9.068;2023-11-21T03:35:34;9.10;99.90
4874;DHT22;2451;49.970;9.068;2023-11-21T03:38:00;9.10;99.90
4874;DHT22;2451;49.970;9.068;2023-11-21T03:40:26;9.10;99.90
4874;DHT22;2451;49.970;9.068;2023-11-21T03:42:51;9.10;99.90
4874;DHT22;2451;49.970;9.068;2023-11-21T03:45:17;9.20;99.90
4874;DHT22;2451;49.970;9.068;2023-11-21T03:47:43;9.10;99.90
4874;DHT22;2451;49.970;9.068;2023-11-21T03:50:09;9.20;99.90
4874;DHT22;2451;49.970;9.068;2023-11-21T03:52:34;9.20;99.90
4874;DHT22;2451;49.970;9.068;2023-11-21T03:55:01;9.20;99.90
4874;DHT22;2451;49.970;9.068;2023-11-21T03:57:26;9.20;99.90
4874;DHT22;2451;49.970;9.068;2023-11-21T03:59:53;9.20;99.90
4874;DHT22;2451;49.970;9.068;2023-11-21T04:02:19;9.20;99.90
4874;DHT22;2451;49.970;9.068;2023-11-21T04:04:44;9.20;99.90
4874;DHT22;2451;49.970;9.068;2023-11-21T04:07:10;9.20;99.90
4874;DHT22;2451;49.970;9.068;2023-11-21T04:09:36;9.20;99.90
4874;DHT22;2451;49.970;9.068;2023-11-21T04:12:02;9.20;99.90
4874;DHT22;2451;49.970;9.068;2023-11-21T04:14:27;9.20;99.90
4874;DHT22;2451;49.970;9.068;2023-11-21T04:16:53;9.20;99.90
4874;DHT22;2451;49.970;9.068;2023-11-21T04:19:19;9.20;99.90
4874;DHT22;2451;49.970;9.068;2023-11-21T04:21:44;9.20;99.90
4874;DHT22;2451;49.970;9.068;2023-11-21T04:24:11;9.20;99.90
4874;DHT22;2451;49.970;9.068;2023-11-21T04:26:36;9.20;99.90
4874;DHT22;2451;49.970;9.068;2023-11-21T04:29:03;9.20;99.90
4874;DHT22;2451;49.970;9.068;2023-11-21T04:31:28;9.20;99.90
4874;DHT22;2451;49.970;9.068;2023-11-21T04:33:54;9.20;99.90
4874;DHT22;2451;49.970;9.068;2023-11-21T04:36:20;9.20;99.90
4874;DHT22;2451;49.970;9.068;2023-11-21T04:38:45;9.20;99.90
4874;DHT22;2451;49.970;9.068;2023-11-21T04:41:11;9.20;99.90
4874;DHT22;2451;49.970;9.068;2023-11-21T04:43:37;9.20;99.90
4874;DHT22;2451;49.970;9.068;2023-11-21T04:46:02;9.20;99.90
4874;DHT22;2451;49.970;9.068;2023-11-21T04:48:28;9.20;99.90
4874;DHT22;2451;49.970;9.068;2023-11-21T04:50:54;9.30;99.90
4874;DHT22;2451;49.970;9.068;2023-11-21T04:53:19;9.20;99.90
4874;DHT22;2451;49.970;9.068;2023-11-21T04:55:45;9.20;99.90
4874;DHT22;2451;49.970;9.068;2023-11-21T04:58:11;9.20;99.90
4874;DHT22;2451;49.970;9.068;2023-11-21T05:00:37;9.20;99.90
4874;DHT22;2451;49.970;9.068;2023-11-21T05:03:04;9.20;99.90
4874;DHT22;2451;49.970;9.068;2023-11-21T05:05:30;9.20;99.90
4874;DHT22;2451;49.970;9.068;2023-11-21T05:07:56;9.20;99.90
4874;DHT22;2451;49.970;9.068;2023-11-21T05:10:21;9.20;99.90
4874;DHT22;2451;49.970;9.068;2023-11-21T05:12:48;9.20;99.90
4874;DHT22;2451;49.970;9.068;2023-11-21T05:15:16;9.20;99.90
4874;DHT22;2451;49.970;9.068;2023-11-21T05:17:46;9.10;99.90
4874;DHT22;2451;49.970;9.068;2023-11-21T05:20:20;9.10;99.90
4874;DHT22;2451;49.970;9.068;2023-11-21T05:22:47;9.10;99.90
4874;DHT22;2451;49.970;9.068;2023-11-21T05:25:16;9.10;99.90
4874;DHT22;2451;49.970;9.068;2023-11-21T05:27:47;9.10;99.90
4874;DHT22;2451;49.970;9.068;2023-11-21T05:30:13;9.20;99.90
4874;DHT22;2451;49.970;9.068;2023-11-21T05:32:39;9.20;99.90
4874;DHT22;2451;49.970;9.068;2023-11-21T05:35:07;9.20;99.90
4874;DHT22;2451;49.970;9.068;2023-11-21T05:37:37;9.10;99.90
4874;DHT22;2451;49.970;9.068;2023-11-21T05:40:05;9.10;99.90
4874;DHT22;2451;49.970;9.068;2023-11-21T05:42:32;9.10;99.90
4874;DHT22;2451;49.970;9.068;2023-11-21T05:44:57;9.10;99.90
4874;DHT22;2451;49.970;9.068;2023-11-21T05:47:24;9.10;99.90
4874;DHT22;2451;49.970;9.068;2023-11-21T05:49:51;9.10;99.90
4874;DHT22;2451;49.970;9.068;2023-11-21T05:52:17;9.10;99.90
4874;DHT22;2451;49.970;9.068;2023-11-21T05:54:43;9.10;99.90
4874;DHT22;2451;49.970;9.068;2023-11-21T05:57:09;9.10;99.90
4874;DHT22;2451;49.970;9.068;2023-11-21T05:59:34;9.10;99.90
4874;DHT22;2451;49.970;9.068;2023-11-21T06:02:00;9.10;99.90
4874;DHT22;2451;49.970;9.068;2023-11-21T06:04:25;9.10;99.90
4874;DHT22;2451;49.970;9.068;2023-11-21T06:06:52;9.10;99.90
4874;DHT22;2451;49.970;9.068;2023-11-21T06:09:18;9.10;99.90
4874;DHT22;2451;49.970;9.068;2023-11-21T06:11:44;9.10;99.90
4874;DHT22;2451;49.970;9.068;2023-11-21T06:14:09;9.10;99.90
4874;DHT22;2451;49.970;9.068;2023-11-21T06:16:36;9.10;99.90
4874;DHT22;2451;49.970;9.068;2023-11-21T06:19:01;9.10;99.90
4874;DHT22;2451;49.970;9.068;2023-11-21T06:21:27;9.10;99.90
4874;DHT22;2451;49.970;9.068;2023-11-21T06:23:53;9.10;99.90
4874;DHT22;2451;49.970;9.068;2023-11-21T06:26:18;9.00;99.90
4874;DHT22;2451;49.970;9.068;2023-11-21T06:28:44;9.00;99.90
4874;DHT22;2451;49.970;9.068;2023-11-21T06:31:09;9.00;99.90
4874;DHT22;2451;49.970;9.068;2023-11-21T06:33:36;9.00;99.90
4874;DHT22;2451;49.970;9.068;2023-11-21T06:36:01;8.90;99.90
4874;DHT22;2451;49.970;9.068;2023-11-21T06:38:31;8.90;99.90
4874;DHT22;2451;49.970;9.068;2023-11-21T06:40:57;8.90;99.90
4874;DHT22;2451;49.970;9.068;2023-11-21T06:43:23;8.90;99.90
4874;DHT22;2451;49.970;9.068;2023-11-21T06:45:49;8.90;99.90
4874;DHT22;2451;49.970;9.068;2023-11-21T06:48:14;8.80;99.90
4874;DHT22;2451;49.970;9.068;2023-11-21T06:50:40;8.90;99.90
4874;DHT22;2451;49.970;9.068;2023-11-21T06:53:07;8.90;99.90
4874;DHT22;2451;49.970;9.068;2023-11-21T06:55:33;8.90;99.90
4874;DHT22;2451;49.970;9.068;2023-11-21T06:57:59;8.90;99.90
4874;DHT22;2451;49.970;9.068;2023-11-21T07:00:25;8.90;99.90
4874;DHT22;2451;49.970;9.068;2023-11-21T07:02:53;8.90;99.90
4874;DHT22;2451;49.970;9.068;2023-11-21T07:05:19;8.90;99.90
4874;DHT22;2451;49.970;9.068;2023-11-21T07:07:46;9.00;99.90
4874;DHT22;2451;49.970;9.068;2023-11-21T07:10:12;9.00;99.90
4874;DHT22;2451;49.970;9.068;2023-11-21T07:12:38;9.00;99.90
4874;DHT22;2451;49.970;9.068;2023-11-21T07:15:04;9.10;99.90
4874;DHT22;2451;49.970;9.068;2023-11-21T07:17:32;9.10;99.90
4874;DHT22;2451;49.970;9.068;2023-11-21T07:19:58;9.10;99.90
4874;DHT22;2451;49.970;9.068;2023-11-21T07:22:23;9.10;99.90
4874;DHT22;2451;49.970;9.068;2023-11-21T07:24:49;9.10;99.90
4874;DHT22;2451;49.970;9.068;2023-11-21T07:27:16;9.20;99.90
4874;DHT22;2451;49.970;9.068;2023-11-21T07:29:41;9.20;99.90
4874;DHT22;2451;49.970;9.068;2023-11-21T07:32:07;9.20;99.90
4874;DHT22;2451;49.970;9.068;2023-11-21T07:34:35;9.30;99.90
4874;DHT22;2451;49.970;9.068;2023-11-21T07:37:01;9.30;99.90
4874;DHT22;2451;49.970;9.068;2023-11-21T07:39:27;9.30;99.90
4874;DHT22;2451;49.970;9.068;2023-11-21T07:41:52;9.30;99.90
4874;DHT22;2451;49.970;9.068;2023-11-21T07:44:18;9.20;99.90
4874;DHT22;2451;49.970;9.068;2023-11-21T07:46:45;9.20;99.90
4874;DHT22;2451;49.970;9.068;2023-11-21T07:49:11;9.10;99.90
4874;DHT22;2451;49.970;9.068;2023-11-21T07:51:37;9.20;99.90
4874;DHT22;2451;49.970;9.068;2023-11-21T07:54:02;9.20;99.90
4874;DHT22;2451;49.970;9.068;2023-11-21T07:56:28;9.20;99.90
4874;DHT22;2451;49.970;9.068;2023-11-21T07:58:53;9.10;99.90
4874;DHT22;2451;49.970;9.068;2023-11-21T08:01:19;9.20;99.90
4874;DHT22;2451;49.970;9.068;2023-11-21T08:03:45;9.20;99.90
4874;DHT22;2451;49.970;9.068;2023-11-21T08:06:10;9.20;99.90
4874;DHT22;2451;49.970;9.068;2023-11-21T08:08:36;9.20;99.90
4874;DHT22;2451;49.970;9.068;2023-11-21T08:11:01;9.30;99.90
4874;DHT22;2451;49.970;9.068;2023-11-21T08:13:29;9.30;99.90
4874;DHT22;2451;49.970;9.068;2023-11-21T08:15:58;9.30;99.90
4874;DHT22;2451;49.970;9.068;2023-11-21T08:18:27;9.30;99.90
4874;DHT22;2451;49.970;9.068;2023-11-21T08:20:54;9.30;99.90
4874;DHT22;2451;49.970;9.068;2023-11-21T08:23:20;9.40;99.90
4874;DHT22;2451;49.970;9.068;2023-11-21T08:25:51;9.50;99.90
4874;DHT22;2451;49.970;9.068;2023-11-21T08:28:16;9.50;99.90
4874;DHT22;2451;49.970;9.068;2023-11-21T08:30:42;9.60;99.90
4874;DHT22;2451;49.970;9.068;2023-11-21T08:33:08;9.60;99.90
4874;DHT22;2451;49.970;9.068;2023-11-21T08:35:34;9.60;99.90
4874;DHT22;2451;49.970;9.068;2023-11-21T08:38:00;9.70;99.90
4874;DHT22;2451;49.970;9.068;2023-11-21T08:40:26;9.70;99.90
4874;DHT22;2451;49.970;9.068;2023-11-21T08:42:51;9.70;99.90
4874;DHT22;2451;49.970;9.068;2023-11-21T08:45:18;9.80;99.90
4874;DHT22;2451;49.970;9.068;2023-11-21T08:47:44;9.80;99.90
4874;DHT22;2451;49.970;9.068;2023-11-21T08:50:10;9.80;99.90
4874;DHT22;2451;49.970;9.068;2023-11-21T08:52:37;9.80;99.90
4874;DHT22;2451;49.970;9.068;2023-11-21T08:55:04;9.80;99.90
4874;DHT22;2451;49.970;9.068;2023-11-21T08:57:34;9.90;99.90
4874;DHT22;2451;49.970;9.068;2023-11-21T09:00:00;9.90;99.90
4874;DHT22;2451;49.970;9.068;2023-11-21T09:02:26;9.90;99.90
4874;DHT22;2451;49.970;9.068;2023-11-21T09:04:52;9.90;99.90
4874;DHT22;2451;49.970;9.068;2023-11-21T09:07:19;9.90;99.90
4874;DHT22;2451;49.970;9.068;2023-11-21T09:09:49;10.00;99.90
4874;DHT22;2451;49.970;9.068;2023-11-21T09:12:15;10.00;99.90
4874;DHT22;2451;49.970;9.068;2023-11-21T09:14:42;10.10;99.90
4874;DHT22;2451;49.970;9.068;2023-11-21T09:17:08;10.10;99.90
4874;DHT22;2451;49.970;9.068;2023-11-21T09:19:40;10.20;99.90
4874;DHT22;2451;49.970;9.068;2023-11-21T09:22:06;10.30;99.90
4874;DHT22;2451;49.970;9.068;2023-11-21T09:24:32;10.40;99.90
4874;DHT22;2451;49.970;9.068;2023-11-21T09:26:58;10.50;99.90
4874;DHT22;2451;49.970;9.068;2023-11-21T09:29:26;10.40;99.90
4874;DHT22;2451;49.970;9.068;2023-11-21T09:31:52;10.40;99.90
4874;DHT22;2451;49.970;9.068;2023-11-21T09:34:19;10.40;99.90
4874;DHT22;2451;49.970;9.068;2023-11-21T09:36:46;10.50;99.90
4874;DHT22;2451;49.970;9.068;2023-11-21T09:39:11;10.50;99.90
4874;DHT22;2451;49.970;9.068;2023-11-21T09:41:46;10.40;99.90
4874;DHT22;2451;49.970;9.068;2023-11-21T09:44:17;10.30;99.90
4874;DHT22;2451;49.970;9.068;2023-11-21T09:46:42;10.30;99.90
4874;DHT22;2451;49.970;9.068;2023-11-21T09:49:11;10.30;99.90
4874;DHT22;2451;49.970;9.068;2023-11-21T09:51:43;10.30;99.90
4874;DHT22;2451;49.970;9.068;2023-11-21T09:54:13;10.20;99.90
4874;DHT22;2451;49.970;9.068;2023-11-21T09:56:41;10.20;99.90
4874;DHT22;2451;49.970;9.068;2023-11-21T09:59:10;10.20;99.90
4874;DHT22;2451;49.970;9.068;2023-11-21T10:01:38;10.20;99.90
4874;DHT22;2451;49.970;9.068;2023-11-21T10:04:06;10.20;99.90
4874;DHT22;2451;49.970;9.068;2023-11-21T10:06:40;10.20;99.90
4874;DHT22;2451;49.970;9.068;2023-11-21T10:09:12;10.20;99.90
4874;DHT22;2451;49.970;9.068;2023-11-21T10:11:43;10.20;99.90
4874;DHT22;2451;49.970;9.068;2023-11-21T10:14:12;10.20;99.90
4874;DHT22;2451;49.970;9.068;2023-11-21T10:16:40;10.30;99.90
4874;DHT22;2451;49.970;9.068;2023-11-21T10:19:10;10.30;99.90
4874;DHT22;2451;49.970;9.068;2023-11-21T10:21:37;10.30;99.90
4874;DHT22;2451;49.970;9.068;2023-11-21T10:24:03;10.40;99.90
4874;DHT22;2451;49.970;9.068;2023-11-21T10:26:30;10.40;99.90
4874;DHT22;2451;49.970;9.068;2023-11-21T10:29:02;10.40;99.90
4874;DHT22;2451;49.970;9.068;2023-11-21T10:31:31;10.40;99.90
4874;DHT22;2451;49.970;9.068;2023-11-21T10:34:16;10.50;99.90
4874;DHT22;2451;49.970;9.068;2023-11-21T10:36:42;10.60;99.90
4874;DHT22;2451;49.970;9.068;2023-11-21T10:39:08;10.60;99.90
4874;DHT22;2451;49.970;9.068;2023-11-21T10:41:35;10.60;99.90
4874;DHT22;2451;49.970;9.068;2023-11-21T10:44:04;10.60;99.90
4874;DHT22;2451;49.970;9.068;2023-11-21T10:46:31;10.70;99.90
4874;DHT22;2451;49.970;9.068;2023-11-21T10:48:57;10.80;99.90
4874;DHT22;2451;49.970;9.068;2023-11-21T10:51:23;10.80;99.90
4874;DHT22;2451;49.970;9.068;2023-11-21T10:53:54;11.00;99.90
4874;DHT22;2451;49.970;9.068;2023-11-21T10:56:23;11.00;99.90
4874;DHT22;2451;49.970;9.068;2023-11-21T10:58:49;10.90;99.90
4874;DHT22;2451;49.970;9.068;2023-11-21T11:01:19;10.90;99.90
4874;DHT22;2451;49.970;9.068;2023-11-21T11:03:47;10.80;99.90
4874;DHT22;2451;49.970;9.068;2023-11-21T11:06:13;10.70;99.90
4874;DHT22;2451;49.970;9.068;2023-11-21T11:08:40;11.00;99.90
4874;DHT22;2451;49.970;9.068;2023-11-21T11:11:06;11.50;99.90
4874;DHT22;2451;49.970;9.068;2023-11-21T11:13:33;12.00;99.90
4874;DHT22;2451;49.970;9.068;2023-11-21T11:16:00;12.30;99.90
4874;DHT22;2451;49.970;9.068;2023-11-21T11:18:29;13.00;99.90
4874;DHT22;2451;49.970;9.068;2023-11-21T11:21:08;13.60;99.90
4874;DHT22;2451;49.970;9.068;2023-11-21T11:26:29;14.60;99.90
4874;DHT22;2451;49.970;9.068;2023-11-21T11:29:08;14.80;99.90
4874;DHT22;2451;49.970;9.068;2023-11-21T11:34:30;15.20;99.90
4874;DHT22;2451;49.970;9.068;2023-11-21T11:37:02;15.60;99.90
4874;DHT22;2451;49.970;9.068;2023-11-21T11:39:38;15.70;99.90
4874;DHT22;2451;49.970;9.068;2023-11-21T11:42:07;16.00;99.90
4874;DHT22;2451;49.970;9.068;2023-11-21T11:47:43;16.80;99.90
4874;DHT22;2451;49.970;9.068;2023-11-21T11:50:11;17.40;99.90
4874;DHT22;2451;49.970;9.068;2023-11-21T11:52:49;17.20;99.90
4874;DHT22;2451;49.970;9.068;2023-11-21T11:55:18;16.90;99.90
4874;DHT22;2451;49.970;9.068;2023-11-21T11:57:45;16.10;99.90
4874;DHT22;2451;49.970;9.068;2023-11-21T12:02:54;15.30;99.90
4874;DHT22;2451;49.970;9.068;2023-11-21T12:05:20;15.00;99.90
4874;DHT22;2451;49.970;9.068;2023-11-21T12:07:49;14.70;99.90
4874;DHT22;2451;49.970;9.068;2023-11-21T12:10:16;14.50;99.90
4874;DHT22;2451;49.970;9.068;2023-11-21T12:12:50;14.30;99.90
4874;DHT22;2451;49.970;9.068;2023-11-21T12:15:18;14.20;99.90
4874;DHT22;2451;49.970;9.068;2023-11-21T12:17:44;14.10;99.90
4874;DHT22;2451;49.970;9.068;2023-11-21T12:20:12;14.00;99.90
4874;DHT22;2451;49.970;9.068;2023-11-21T12:22:47;14.00;99.90
4874;DHT22;2451;49.970;9.068;2023-11-21T12:25:29;13.80;99.90
4874;DHT22;2451;49.970;9.068;2023-11-21T12:27:57;13.60;99.90
4874;DHT22;2451;49.970;9.068;2023-11-21T12:30:28;13.30;99.90
4874;DHT22;2451;49.970;9.068;2023-11-21T12:32:56;13.20;99.90
4874;DHT22;2451;49.970;9.068;2023-11-21T12:35:24;13.10;99.90
4874;DHT22;2451;49.970;9.068;2023-11-21T12:37:51;12.90;99.90
4874;DHT22;2451;49.970;9.068;2023-11-21T12:40:17;12.90;99.90
4874;DHT22;2451;49.970;9.068;2023-11-21T12:42:45;12.90;99.90
4874;DHT22;2451;49.970;9.068;2023-11-21T12:45:21;12.60;99.90
4874;DHT22;2451;49.970;9.068;2023-11-21T12:47:53;12.50;99.90
4874;DHT22;2451;49.970;9.068;2023-11-21T12:50:26;12.40;99.90
4874;DHT22;2451;49.970;9.068;2023-11-21T12:53:02;12.40;99.90
4874;DHT22;2451;49.970;9.068;2023-11-21T12:55:33;12.40;99.90
4874;DHT22;2451;49.970;9.068;2023-11-21T12:58:01;12.40;99.90
4874;DHT22;2451;49.970;9.068;2023-11-21T13:00:42;12.40;99.90
4874;DHT22;2451;49.970;9.068;2023-11-21T13:03:10;12.40;99.90
4874;DHT22;2451;49.970;9.068;2023-11-21T13:05:38;12.40;99.90
4874;DHT22;2451;49.970;9.068;2023-11-21T13:08:06;12.40;99.90
4874;DHT22;2451;49.970;9.068;2023-11-21T13:10:36;12.40;99.90
4874;DHT22;2451;49.970;9.068;2023-11-21T13:13:06;12.30;99.90
4874;DHT22;2451;49.970;9.068;2023-11-21T13:15:35;12.20;99.90
4874;DHT22;2451;49.970;9.068;2023-11-21T13:18:03;12.20;99.90
4874;DHT22;2451;49.970;9.068;2023-11-21T13:20:29;12.10;99.90
4874;DHT22;2451;49.970;9.068;2023-11-21T13:22:58;12.10;99.90
4874;DHT22;2451;49.970;9.068;2023-11-21T13:25:28;12.00;99.90
4874;DHT22;2451;49.970;9.068;2023-11-21T13:28:00;11.90;99.90
4874;DHT22;2451;49.970;9.068;2023-11-21T13:30:28;11.80;99.90
4874;DHT22;2451;49.970;9.068;2023-11-21T13:33:00;11.70;99.90
4874;DHT22;2451;49.970;9.068;2023-11-21T13:35:28;11.60;99.90
4874;DHT22;2451;49.970;9.068;2023-11-21T13:38:12;11.50;99.90
4874;DHT22;2451;49.970;9.068;2023-11-21T13:40:39;11.30;99.90
4874;DHT22;2451;49.970;9.068;2023-11-21T13:43:13;11.10;99.90
4874;DHT22;2451;49.970;9.068;2023-11-21T13:45:43;11.10;99.90
4874;DHT22;2451;49.970;9.068;2023-11-21T13:48:09;11.00;99.90
4874;DHT22;2451;49.970;9.068;2023-11-21T13:50:39;11.00;99.90
4874;DHT22;2451;49.970;9.068;2023-11-21T13:53:14;10.90;99.90
4874;DHT22;2451;49.970;9.068;2023-11-21T13:55:57;10.90;99.90
4874;DHT22;2451;49.970;9.068;2023-11-21T13:58:25;10.80;99.90
4874;DHT22;2451;49.970;9.068;2023-11-21T14:01:24;10.80;99.90
4874;DHT22;2451;49.970;9.068;2023-11-21T14:03:56;10.70;99.90
4874;DHT22;2451;49.970;9.068;2023-11-21T14:06:49;10.70;99.90
4874;DHT22;2451;49.970;9.068;2023-11-21T14:09:20;10.70;99.90
4874;DHT22;2451;49.970;9.068;2023-11-21T14:11:55;10.70;99.90
4874;DHT22;2451;49.970;9.068;2023-11-21T14:14:26;10.70;99.90
4874;DHT22;2451;49.970;9.068;2023-11-21T14:16:53;10.60;99.90
4874;DHT22;2451;49.970;9.068;2023-11-21T14:19:19;10.70;99.90
4874;DHT22;2451;49.970;9.068;2023-11-21T14:21:47;10.60;99.90
4874;DHT22;2451;49.970;9.068;2023-11-21T14:24:14;10.60;99.90
4874;DHT22;2451;49.970;9.068;2023-11-21T14:26:46;10.60;99.90
4874;DHT22;2451;49.970;9.068;2023-11-21T14:29:13;10.60;99.90
4874;DHT22;2451;49.970;9.068;2023-11-21T14:31:41;10.50;99.90
4874;DHT22;2451;49.970;9.068;2023-11-21T14:34:07;10.50;99.90
4874;DHT22;2451;49.970;9.068;2023-11-21T14:36:34;10.50;99.90
4874;DHT22;2451;49.970;9.068;2023-11-21T14:39:00;10.40;99.90
4874;DHT22;2451;49.970;9.068;2023-11-21T14:41:25;10.50;99.90
4874;DHT22;2451;49.970;9.068;2023-11-21T14:43:53;10.40;99.90
4874;DHT22;2451;49.970;9.068;2023-11-21T14:46:19;10.40;99.90
4874;DHT22;2451;49.970;9.068;2023-11-21T14:48:45;10.40;99.90
4874;DHT22;2451;49.970;9.068;2023-11-21T14:51:24;10.30;99.90
4874;DHT22;2451;49.970;9.068;2023-11-21T14:53:56;10.30;99.90
4874;DHT22;2451;49.970;9.068;2023-11-21T14:56:26;10.30;99.90
4874;DHT22;2451;49.970;9.068;2023-11-21T14:58:57;10.30;99.90
4874;DHT22;2451;49.970;9.068;2023-11-21T15:01:24;10.30;99.90
4874;DHT22;2451;49.970;9.068;2023-11-21T15:04:02;10.20;99.90
4874;DHT22;2451;49.970;9.068;2023-11-21T15:06:28;10.20;99.90
4874;DHT22;2451;49.970;9.068;2023-11-21T15:08:57;10.10;99.90
4874;DHT22;2451;49.970;9.068;2023-11-21T15:11:43;10.20;99.90
4874;DHT22;2451;49.970;9.068;2023-11-21T15:14:08;10.10;99.90
4874;DHT22;2451;49.970;9.068;2023-11-21T15:16:35;10.10;99.90
4874;DHT22;2451;49.970;9.068;2023-11-21T15:19:15;10.00;99.90
4874;DHT22;2451;49.970;9.068;2023-11-21T15:21:44;9.90;99.90
4874;DHT22;2451;49.970;9.068;2023-11-21T15:24:11;9.90;99.90
4874;DHT22;2451;49.970;9.068;2023-11-21T15:26:37;9.90;99.90
4874;DHT22;2451;49.970;9.068;2023-11-21T15:29:02;9.90;99.90
4874;DHT22;2451;49.970;9.068;2023-11-21T15:31:28;9.80;99.90
4874;DHT22;2451;49.970;9.068;2023-11-21T15:33:54;9.80;99.90
4874;DHT22;2451;49.970;9.068;2023-11-21T15:36:24;9.80;99.90
4874;DHT22;2451;49.970;9.068;2023-11-21T15:38:50;9.80;99.90
4874;DHT22;2451;49.970;9.068;2023-11-21T15:41:16;9.70;99.90
4874;DHT22;2451;49.970;9.068;2023-11-21T15:43:42;9.70;99.90
4874;DHT22;2451;49.970;9.068;2023-11-21T15:46:07;9.70;99.90
4874;DHT22;2451;49.970;9.068;2023-11-21T15:48:34;9.80;99.90
4874;DHT22;2451;49.970;9.068;2023-11-21T15:51:01;9.70;99.90
4874;DHT22;2451;49.970;9.068;2023-11-21T15:53:28;9.70;99.90
4874;DHT22;2451;49.970;9.068;2023-11-21T15:55:54;9.60;99.90
4874;DHT22;2451;49.970;9.068;2023-11-21T15:58:19;9.70;99.90
4874;DHT22;2451;49.970;9.068;2023-11-21T16:00:45;9.70;99.90
4874;DHT22;2451;49.970;9.068;2023-11-21T16:03:10;9.70;99.90
4874;DHT22;2451;49.970;9.068;2023-11-21T16:05:37;9.70;99.90
4874;DHT22;2451;49.970;9.068;2023-11-21T16:08:03;9.60;99.90
4874;DHT22;2451;49.970;9.068;2023-11-21T16:10:29;9.60;99.90
4874;DHT22;2451;49.970;9.068;2023-11-21T16:12:54;9.60;99.90
4874;DHT22;2451;49.970;9.068;2023-11-21T16:15:20;9.60;99.90
4874;DHT22;2451;49.970;9.068;2023-11-21T16:17:46;9.60;99.90
4874;DHT22;2451;49.970;9.068;2023-11-21T16:20:11;9.60;99.90
4874;DHT22;2451;49.970;9.068;2023-11-21T16:22:40;9.60;99.90
4874;DHT22;2451;49.970;9.068;2023-11-21T16:25:07;9.60;99.90